Islesboro, Maine
Current Conditions -  °F | °C
As of 7:15 AM on Friday 28 Nov 2014 (Local Time) from KRKD Reporting Station
Broken Clouds Broken Clouds  
Wind Chill: 16°   Ceiling: 7000
Heat Index: 27°   Visibility: 10mi
Dew Point: 18°   Wind: 13mph
Humidity: 69%   Direction: 30°NNE
Pressure: 30.01"   Gusts: 21mph
Location:  44.31°N, 68.9°W
Report Text: KRKD 281215Z AUTO 03011G18KT 10SM BKN070 BKN080 M03/M08 A3001 RMK AO1
Loading
Personal Weather Stations






























Interactive Weather Map New forecast layout! Learn more

10-Day Weather Forecast

Advertisements
Track Severe Weather on mobile